Melber, Kentucky
Current Conditions -  °F | °C
As of 3:53 AM on Saturday 29 Nov 2014 (Local Time) from KPAH Reporting Station
Overcast Overcast  
Wind Chill: 43°   Ceiling: 2300
Heat Index: 47°   Visibility: 10mi
Dew Point: 31°   Wind: 8mph
Humidity: 54%   Direction: 200°SSW
Pressure: 29.98"   Gusts: NA
Location:  36.95°N, 88.73°W
Report Text: KPAH 290953Z AUTO 20007KT 10SM OVC023 08/M01 A2998 RMK AO2 SLP152 T00831006
Loading
Personal Weather Stations






























Interactive Weather Map New forecast layout! Learn more

10-Day Weather Forecast

Advertisements
Track Severe Weather on mobile